Time;durP1;ratioP1;P1;durP2;ratioP2;P2;SDS_P1;SDS_P2;PMS_P1;PMS_P2;Temp;Humidity;BMP_temperature;BMP_pressure;BME280_temperature;BME280_humidity;BME280_pressure;Samples;Min_cycle;Max_cycle;Signal;HPM_P1;HPM_P2
2021/04/14 00:02:04;;;;;;;10.50;1.50;;;;;;;2.96;72.96;102010.28;4981608;28;20058;-66
2021/04/14 00:04:31;;;;;;;7.22;1.85;;;;;;;2.86;73.48;102004.28;4972689;28;20141;-65
2021/04/14 00:06:59;;;;;;;9.52;1.60;;;;;;;2.90;73.44;102005.13;4970038;28;20201;-65
2021/04/14 00:09:29;;;;;;;11.38;1.77;;;;;;;2.78;73.46;102011.25;4987183;28;20084;-67
2021/04/14 00:11:56;;;;;;;7.80;1.67;;;;;;;2.78;73.95;102006.03;4987144;28;20054;-68
2021/04/14 00:14:24;;;;;;;10.82;1.65;;;;;;;2.69;73.26;102003.50;4964172;28;20054;-67
2021/04/14 00:16:51;;;;;;;12.20;1.75;;;;;;;2.79;73.29;102003.47;4988853;28;20055;-63
2021/04/14 00:19:18;;;;;;;7.10;1.45;;;;;;;2.70;72.93;102000.91;4983270;28;20460;-66
2021/04/14 00:21:45;;;;;;;17.15;2.40;;;;;;;2.67;73.15;102003.50;4985590;28;20137;-66
2021/04/14 00:24:12;;;;;;;6.85;1.45;;;;;;;2.59;73.98;102007.00;4978463;28;20154;-65
2021/04/14 00:26:43;;;;;;;8.88;1.52;;;;;;;2.60;73.34;102000.94;4987124;28;20072;-65
2021/04/14 00:29:10;;;;;;;10.60;1.63;;;;;;;2.52;73.53;102007.03;4968884;28;20078;-66
2021/04/14 00:31:38;;;;;;;15.38;2.17;;;;;;;2.46;74.19;102004.44;4969603;28;20100;-64
2021/04/14 00:34:07;;;;;;;13.38;2.35;;;;;;;2.48;73.58;102007.06;4958459;28;20063;-65
2021/04/14 00:36:35;;;;;;;6.85;1.60;;;;;;;2.54;73.49;102010.47;4986217;28;20472;-65
2021/04/14 00:39:07;;;;;;;12.15;1.58;;;;;;;2.50;73.35;102005.31;4970962;28;20046;-66
2021/04/14 00:41:34;;;;;;;7.72;1.98;;;;;;;2.38;73.50;102007.94;4967426;28;20058;-64
2021/04/14 00:44:02;;;;;;;9.43;1.52;;;;;;;2.47;73.52;102005.31;4969921;28;20114;-64
2021/04/14 00:46:29;;;;;;;9.88;2.08;;;;;;;2.45;73.81;102013.13;4968609;28;20131;-62
2021/04/14 00:48:55;;;;;;;13.43;1.83;;;;;;;2.39;73.78;102002.75;4983504;28;20108;-66
2021/04/14 00:51:22;;;;;;;11.52;1.50;;;;;;;2.37;73.74;102007.06;4978714;28;20066;-65
2021/04/14 00:53:49;;;;;;;11.32;1.98;;;;;;;2.35;73.89;102000.16;4978565;28;20655;-65
2021/04/14 00:56:16;;;;;;;7.68;1.30;;;;;;;2.28;74.21;102000.16;4995208;23;20275;-77
2021/04/14 00:58:43;;;;;;;8.73;2.22;;;;;;;2.30;74.40;102002.78;5012937;28;20077;-79
2021/04/14 01:01:10;;;;;;;10.25;1.60;;;;;;;2.35;74.31;102001.03;5014025;23;20133;-69
2021/04/14 01:03:37;;;;;;;8.80;1.70;;;;;;;2.23;74.28;102001.06;4990651;28;20510;-66
2021/04/14 01:06:12;;;;;;;13.52;2.60;;;;;;;2.18;74.75;102006.25;4969641;28;20145;-67
2021/04/14 01:08:39;;;;;;;10.05;2.35;;;;;;;2.19;74.79;102002.78;4971829;28;20588;-67
2021/04/14 01:11:06;;;;;;;15.35;2.88;;;;;;;2.11;74.81;102006.25;4973508;28;20050;-66
2021/04/14 01:13:33;;;;;;;7.53;2.30;;;;;;;2.16;75.34;102004.50;4971969;28;20158;-68
2021/04/14 01:16:00;;;;;;;10.27;1.50;;;;;;;2.15;75.33;102003.66;4948740;28;20050;-67
2021/04/14 01:18:29;;;;;;;11.85;1.88;;;;;;;1.99;75.47;102002.84;4976224;28;20061;-67
2021/04/14 01:20:56;;;;;;;10.30;1.58;;;;;;;1.98;76.73;102006.31;4956556;28;20050;-66
2021/04/14 01:23:25;;;;;;;14.55;2.13;;;;;;;1.94;76.39;102003.72;4972016;28;20060;-67
2021/04/14 01:25:52;;;;;;;10.25;1.50;;;;;;;1.88;76.58;101999.38;4988099;28;20107;-66
2021/04/14 01:28:22;;;;;;;16.63;2.10;;;;;;;1.86;77.82;101995.94;4970060;28;20084;-66
2021/04/14 01:30:51;;;;;;;13.13;2.30;;;;;;;1.91;77.08;101993.31;4968844;28;20308;-66
2021/04/14 01:33:20;;;;;;;13.02;1.77;;;;;;;1.76;77.20;101996.81;4953114;28;20054;-67
2021/04/14 01:35:47;;;;;;;6.18;1.52;;;;;;;1.75;77.93;101992.44;4978633;28;20129;-67
2021/04/14 01:38:14;;;;;;;12.73;2.30;;;;;;;1.70;77.92;101994.19;4979658;28;20082;-68
2021/04/14 01:40:41;;;;;;;11.25;1.67;;;;;;;1.67;78.28;101989.88;4968696;28;20053;-67
2021/04/14 01:43:08;;;;;;;15.55;1.80;;;;;;;1.69;78.82;101988.13;4972247;28;20074;-67
2021/04/14 01:45:38;;;;;;;10.07;1.73;;;;;;;1.68;78.75;101991.59;4955871;28;20043;-68
2021/04/14 01:48:06;;;;;;;11.50;2.08;;;;;;;1.50;79.21;101984.69;4951423;28;20391;-67
2021/04/14 01:50:33;;;;;;;10.32;1.48;;;;;;;1.55;79.84;101983.81;4947652;28;20055;-67
2021/04/14 01:53:00;;;;;;;8.10;1.75;;;;;;;1.52;79.79;101982.94;4963626;28;20065;-67
2021/04/14 01:55:27;;;;;;;13.48;1.65;;;;;;;1.54;80.07;101985.56;4977260;28;20100;-67
2021/04/14 01:57:55;;;;;;;13.55;1.90;;;;;;;1.57;80.45;101987.28;4967157;28;20134;-67
2021/04/14 02:00:27;;;;;;;13.93;2.17;;;;;;;1.47;80.86;101986.41;4981169;28;20137;-67
2021/04/14 02:02:54;;;;;;;11.07;1.77;;;;;;;1.42;80.88;101989.00;4984315;28;20141;-67
2021/04/14 02:05:24;;;;;;;5.25;1.17;;;;;;;1.49;80.60;101985.56;4980647;28;20401;-66
2021/04/14 02:07:52;;;;;;;7.10;1.65;;;;;;;1.34;81.31;101980.34;4932623;28;20051;-68
2021/04/14 02:10:19;;;;;;;9.63;1.75;;;;;;;1.17;82.15;101982.03;4964206;28;20046;-68
2021/04/14 02:12:47;;;;;;;16.15;4.15;;;;;;;1.20;82.59;101985.50;4963484;28;20054;-67
2021/04/14 02:15:18;;;;;;;11.50;2.25;;;;;;;1.12;82.61;101976.84;4949698;28;20305;-68
2021/04/14 02:17:47;;;;;;;11.43;1.38;;;;;;;1.07;82.84;101977.72;4940268;28;20100;-67
2021/04/14 02:20:15;;;;;;;11.80;1.95;;;;;;;1.11;83.65;101976.84;4961675;28;20058;-66
2021/04/14 02:22:42;;;;;;;18.05;3.15;;;;;;;1.20;83.40;101976.88;4968270;28;20047;-67
2021/04/14 02:25:11;;;;;;;12.82;2.10;;;;;;;1.26;83.28;101980.34;4966927;28;20099;-67
2021/04/14 02:27:38;;;;;;;13.57;2.38;;;;;;;1.27;83.78;101981.22;4967975;28;20069;-67
2021/04/14 02:30:12;;;;;;;20.05;2.10;;;;;;;1.26;82.81;101976.88;4970016;28;20053;-66
2021/04/14 02:32:39;;;;;;;9.05;1.98;;;;;;;1.27;83.41;101984.66;4968153;28;20459;-66
2021/04/14 02:35:06;;;;;;;10.93;2.22;;;;;;;1.23;83.86;101982.06;4985178;28;20085;-66
2021/04/14 02:37:32;;;;;;;11.25;2.40;;;;;;;1.34;83.49;101977.75;4990133;28;20054;-66
2021/04/14 02:39:59;;;;;;;10.13;2.75;;;;;;;1.33;83.63;101978.63;4955816;28;20054;-67
2021/04/14 02:42:26;;;;;;;18.67;2.50;;;;;;;1.15;83.91;101978.59;4979129;28;20065;-66
2021/04/14 02:44:53;;;;;;;9.82;2.50;;;;;;;1.13;84.61;101980.34;4987981;28;20137;-67
2021/04/14 02:47:19;;;;;;;16.60;2.83;;;;;;;1.29;84.09;101978.63;4984465;28;20499;-66
2021/04/14 02:49:46;;;;;;;13.50;2.88;;;;;;;1.30;83.88;101973.41;4981450;28;20061;-67
2021/04/14 02:52:13;;;;;;;14.90;2.15;;;;;;;1.36;84.69;101976.03;4970558;28;20141;-67
2021/04/14 02:54:39;;;;;;;10.70;2.17;;;;;;;1.11;84.78;101980.31;4987043;28;20221;-68
2021/04/14 02:57:06;;;;;;;12.60;2.97;;;;;;;1.09;84.66;101978.59;4957569;28;20042;-66
2021/04/14 02:59:33;;;;;;;22.63;2.20;;;;;;;1.06;85.28;101974.25;4971794;28;20141;-67
2021/04/14 03:01:59;;;;;;;9.50;2.03;;;;;;;1.09;85.22;101973.41;4988828;28;20050;-67
2021/04/14 03:04:26;;;;;;;19.77;2.45;;;;;;;1.08;85.16;101969.97;4972634;28;20067;-67
2021/04/14 03:06:53;;;;;;;16.02;3.53;;;;;;;1.07;85.36;101977.72;4958005;28;20042;-68
2021/04/14 03:09:20;;;;;;;12.45;2.40;;;;;;;1.06;85.37;101974.25;4984946;28;20069;-66
2021/04/14 03:11:47;;;;;;;16.80;2.33;;;;;;;1.06;85.95;101970.81;4968975;28;20073;-66
2021/04/14 03:14:13;;;;;;;13.38;2.58;;;;;;;1.01;85.66;101976.84;4984134;28;20641;-66
2021/04/14 03:16:40;;;;;;;12.95;2.45;;;;;;;0.96;86.29;101975.09;4979317;28;20038;-66
2021/04/14 03:19:07;;;;;;;10.40;2.28;;;;;;;0.93;86.79;101975.94;4986475;28;20141;-65
2021/04/14 03:21:34;;;;;;;17.02;2.22;;;;;;;0.92;86.79;101982.00;4968326;28;20552;-66
2021/04/14 03:24:01;;;;;;;18.08;3.60;;;;;;;0.90;86.14;101972.47;4971806;28;20046;-67
2021/04/14 03:26:28;;;;;;;18.17;2.22;;;;;;;0.85;86.75;101976.78;4976560;28;20389;-66
2021/04/14 03:28:54;;;;;;;8.10;2.50;;;;;;;0.85;87.26;101976.78;4968987;28;20366;-66
2021/04/14 03:31:21;;;;;;;17.33;2.20;;;;;;;0.70;87.82;101980.22;4985942;28;20165;-66
2021/04/14 03:33:48;;;;;;;23.88;3.88;;;;;;;0.71;87.68;101980.22;4982586;28;20069;-66
2021/04/14 03:36:15;;;;;;;21.33;2.60;;;;;;;0.68;88.23;101982.81;4989358;28;20496;-67
2021/04/14 03:38:41;;;;;;;18.10;3.95;;;;;;;0.80;87.90;101981.09;4985064;28;20568;-67
2021/04/14 03:41:08;;;;;;;12.15;2.55;;;;;;;0.88;87.72;101984.59;4987797;28;20058;-67
2021/04/14 03:43:35;;;;;;;19.45;3.42;;;;;;;0.75;88.12;101976.75;4969070;28;20050;-65
2021/04/14 03:46:02;;;;;;;24.45;3.33;;;;;;;0.73;87.91;101970.72;4968949;28;20485;-67
2021/04/14 03:48:29;;;;;;;34.80;4.82;;;;;;;0.64;88.31;101970.69;4967523;28;20061;-66
2021/04/14 03:50:56;;;;;;;20.83;2.28;;;;;;;0.58;88.68;101974.97;4971431;28;20141;-67
2021/04/14 03:53:31;;;;;;;20.65;3.40;;;;;;;0.59;88.77;101972.41;4983939;28;20145;-66
2021/04/14 03:55:58;;;;;;;19.10;2.85;;;;;;;0.66;88.99;101968.09;4984834;28;20117;-66
2021/04/14 03:58:26;;;;;;;16.50;2.10;;;;;;;0.60;89.02;101965.50;4972271;28;20054;-67
2021/04/14 04:00:54;;;;;;;24.02;3.90;;;;;;;0.56;89.32;101971.53;4971578;28;20065;-67
2021/04/14 04:03:22;;;;;;;14.10;2.38;;;;;;;0.52;89.95;101970.63;4973093;28;20061;-66
2021/04/14 04:05:50;;;;;;;24.17;3.08;;;;;;;0.61;88.98;101969.81;4988662;28;20073;-66
2021/04/14 04:08:17;;;;;;;17.95;3.67;;;;;;;0.61;89.19;101970.69;4976986;28;20072;-67
2021/04/14 04:10:43;;;;;;;17.73;2.90;;;;;;;0.65;89.29;101968.97;4958511;28;20145;-66
2021/04/14 04:13:13;;;;;;;22.75;3.63;;;;;;;0.59;89.51;101979.31;4982339;28;20058;-66
2021/04/14 04:15:40;;;;;;;13.23;2.03;;;;;;;0.63;89.57;101975.84;4970046;28;20154;-67
2021/04/14 04:18:07;;;;;;;18.92;2.50;;;;;;;0.59;89.96;101976.72;4981227;28;20100;-67
2021/04/14 04:20:34;;;;;;;24.50;2.95;;;;;;;0.61;89.74;101982.78;4953120;28;20137;-67
2021/04/14 04:23:02;;;;;;;18.23;3.20;;;;;;;0.62;89.76;101979.31;4968510;28;20098;-68
2021/04/14 04:25:30;;;;;;;21.38;4.05;;;;;;;0.61;90.34;101983.63;4981871;28;20305;-67
2021/04/14 04:27:57;;;;;;;26.38;3.75;;;;;;;0.63;90.04;101989.69;4965767;28;20050;-67
2021/04/14 04:30:25;;;;;;;25.80;2.80;;;;;;;0.66;90.07;101981.06;4962476;28;20062;-66
2021/04/14 04:32:52;;;;;;;23.45;4.28;;;;;;;0.63;89.92;101989.69;4961365;28;20056;-66
2021/04/14 04:35:19;;;;;;;21.25;2.60;;;;;;;0.75;89.68;101992.31;4965434;28;20160;-66
2021/04/14 04:37:46;;;;;;;16.80;2.85;;;;;;;0.76;89.83;101988.84;4965394;28;20129;-67
2021/04/14 04:40:13;;;;;;;18.75;2.95;;;;;;;0.73;90.35;101998.38;4971603;28;20062;-65
2021/04/14 04:42:40;;;;;;;20.67;4.47;;;;;;;0.74;89.40;102007.88;4965362;28;20432;-67
2021/04/14 04:45:09;;;;;;;18.55;2.97;;;;;;;0.87;89.83;102003.59;4966794;28;20053;-68
2021/04/14 04:47:35;;;;;;;26.35;3.13;;;;;;;1.12;88.88;102007.97;4983067;28;20540;-67
2021/04/14 04:50:04;;;;;;;15.48;3.45;;;;;;;1.18;87.95;102009.75;4967817;28;20442;-67
2021/04/14 04:52:31;;;;;;;14.52;2.42;;;;;;;1.25;87.76;102014.06;4949663;28;20145;-67
2021/04/14 04:54:58;;;;;;;14.73;2.97;;;;;;;1.24;87.74;102014.94;4982184;28;20302;-67
2021/04/14 04:57:24;;;;;;;19.23;5.75;;;;;;;1.29;87.37;102020.97;4981231;28;20074;-66
2021/04/14 04:59:52;;;;;;;23.75;3.80;;;;;;;1.37;87.32;102015.81;4981948;28;20061;-67
2021/04/14 05:02:19;;;;;;;23.15;4.22;;;;;;;1.82;85.11;102020.16;4967170;28;20704;-66
2021/04/14 05:04:46;;;;;;;14.98;3.17;;;;;;;1.79;85.29;102017.56;4983447;28;20231;-66
2021/04/14 05:07:12;;;;;;;15.65;3.03;;;;;;;2.39;82.63;102023.53;4981221;28;20073;-66
2021/04/14 05:09:39;;;;;;;16.75;2.58;;;;;;;2.52;81.39;102027.84;4976523;28;20725;-67
2021/04/14 05:12:06;;;;;;;18.77;2.35;;;;;;;3.13;79.20;102018.00;4973209;28;20129;-66
2021/04/14 05:14:33;;;;;;;15.05;2.88;;;;;;;3.36;76.92;102021.31;4986537;28;20141;-66
2021/04/14 05:17:00;;;;;;;14.55;2.55;;;;;;;3.36;76.87;102021.31;4971073;28;20500;-67
2021/04/14 05:19:27;;;;;;;18.15;2.95;;;;;;;3.66;76.34;102024.59;4986998;28;20216;-67
2021/04/14 05:21:55;;;;;;;16.98;3.10;;;;;;;3.80;76.20;102030.56;4978582;28;20077;-66
2021/04/14 05:24:21;;;;;;;13.90;3.25;;;;;;;4.16;74.46;102031.97;4954222;28;20294;-65
2021/04/14 05:26:48;;;;;;;22.70;3.33;;;;;;;4.46;72.90;102035.13;4969899;28;20095;-66
2021/04/14 05:29:15;;;;;;;16.25;3.65;;;;;;;4.17;73.72;102035.44;4970846;28;20042;-67
2021/04/14 05:31:42;;;;;;;13.45;2.58;;;;;;;4.02;74.06;102037.31;4963114;28;20051;-66
2021/04/14 05:34:09;;;;;;;14.40;2.67;;;;;;;4.13;72.98;102038.94;4978095;28;20109;-65
2021/04/14 05:36:38;;;;;;;13.18;2.53;;;;;;;4.77;71.52;102038.22;4984691;28;20197;-66
2021/04/14 05:39:05;;;;;;;17.90;3.47;;;;;;;4.79;70.83;102041.69;4985006;28;20086;-65
2021/04/14 05:41:32;;;;;;;23.70;3.22;;;;;;;5.48;68.27;102041.59;4965641;28;20052;-67
2021/04/14 05:43:59;;;;;;;20.33;4.10;;;;;;;5.69;67.14;102036.94;4983914;28;21071;-66
2021/04/14 05:46:26;;;;;;;24.77;4.00;;;;;;;5.84;66.26;102036.69;4965598;28;20063;-67
2021/04/14 05:48:53;;;;;;;18.73;4.13;;;;;;;5.90;66.90;102040.94;4977591;28;20046;-68
2021/04/14 05:51:27;;;;;;;26.15;2.92;;;;;;;6.37;64.56;102044.50;4982312;28;20149;-67
2021/04/14 05:53:54;;;;;;;19.13;3.60;;;;;;;5.54;66.16;102035.44;4961318;28;20051;-67
2021/04/14 05:56:24;;;;;;;29.10;5.00;;;;;;;4.90;69.40;102044.16;4981810;28;20050;-67
2021/04/14 05:58:51;;;;;;;18.85;4.13;;;;;;;4.78;70.80;102053.88;4980355;28;20046;-66
2021/04/14 06:01:20;;;;;;;19.77;4.15;;;;;;;5.11;69.83;102041.28;4966132;28;20058;-67
2021/04/14 06:03:49;;;;;;;23.42;3.47;;;;;;;5.12;69.14;102049.97;4964916;28;20523;-67
2021/04/14 06:06:18;;;;;;;14.57;2.92;;;;;;;4.89;70.38;102055.47;4964938;28;20089;-66
2021/04/14 06:08:44;;;;;;;12.30;3.03;;;;;;;5.26;68.66;102048.03;4972788;28;20043;-67
2021/04/14 06:11:12;;;;;;;25.88;4.97;;;;;;;5.64;67.81;102047.47;4990685;28;20072;-66
2021/04/14 06:13:38;;;;;;;19.52;3.88;;;;;;;5.68;67.68;102050.91;4970895;28;20149;-66
2021/04/14 06:16:08;;;;;;;15.20;3.15;;;;;;;5.42;67.81;102054.75;4990104;28;20050;-67
2021/04/14 06:18:35;;;;;;;14.35;3.63;;;;;;;5.33;67.83;102049.69;4984150;28;20046;-66
2021/04/14 06:21:04;;;;;;;17.80;2.92;;;;;;;5.32;68.24;102048.81;4959437;28;20061;-66
2021/04/14 06:23:31;;;;;;;22.38;3.78;;;;;;;6.41;65.96;102051.41;4953996;28;20043;-67
2021/04/14 06:28:27;;;;;;;17.25;3.75;;;;;;;7.75;60.30;102053.75;4973225;28;20128;-66
2021/04/14 06:30:54;;;;;;;16.67;3.22;;;;;;;8.57;57.88;102049.91;4972288;28;20050;-67
2021/04/14 06:33:22;;;;;;;16.52;3.78;;;;;;;8.54;57.24;102048.22;4965524;28;20048;-65
2021/04/14 06:35:51;;;;;;;17.15;3.85;;;;;;;8.22;57.86;102048.19;4965084;28;20746;-65
2021/04/14 06:38:22;;;;;;;17.77;3.45;;;;;;;9.09;55.46;102046.59;4973930;28;20158;-66
2021/04/14 06:41:08;;;;;;;14.85;3.60;;;;;;;10.05;52.58;102042.69;4973527;28;20088;-67
2021/04/14 06:43:56;;;;;;;16.20;4.55;;;;;;;10.10;51.71;102051.25;4957884;28;20060;-66
2021/04/14 06:46:27;;;;;;;12.70;3.33;;;;;;;10.30;51.67;102044.47;4987567;28;20059;-67
2021/04/14 06:49:28;;;;;;;17.45;3.95;;;;;;;9.59;52.38;102049.47;4959629;28;20052;-66
2021/04/14 06:52:03;;;;;;;21.63;4.35;;;;;;;10.31;51.69;102048.81;4982297;28;20050;-66
2021/04/14 06:54:54;;;;;;;19.80;4.30;;;;;;;11.60;47.68;102042.19;4977089;28;20063;-65
2021/04/14 06:57:24;;;;;;;14.02;3.53;;;;;;;12.30;46.47;102039.25;5000119;23;20147;-67
2021/04/14 06:59:54;;;;;;;20.90;3.63;;;;;;;11.98;46.94;102042.41;4990683;28;20133;-66
2021/04/14 07:02:26;;;;;;;14.57;3.60;;;;;;;12.22;46.94;102037.88;4974902;28;20149;-67
2021/04/14 07:05:04;;;;;;;16.02;3.80;;;;;;;12.79;44.75;102039.72;5002787;28;20677;-67
2021/04/14 07:07:34;;;;;;;15.32;2.80;;;;;;;14.72;41.04;102042.56;4987926;28;20318;-66
2021/04/14 07:10:22;;;;;;;17.30;3.05;;;;;;;14.90;39.55;102039.78;4989291;28;20086;-66
2021/04/14 07:12:50;;;;;;;15.52;2.92;;;;;;;15.67;38.40;102035.50;4985856;28;20054;-66
2021/04/14 07:15:19;;;;;;;11.57;3.42;;;;;;;15.57;37.80;102032.47;4994610;28;20064;-67
2021/04/14 07:18:04;;;;;;;12.95;3.35;;;;;;;13.28;42.55;102036.59;5008783;28;20116;-67
2021/04/14 07:20:44;;;;;;;12.80;3.50;;;;;;;13.43;41.57;102036.72;5000123;28;20105;-65
2021/04/14 07:23:20;;;;;;;17.75;4.28;;;;;;;13.14;41.63;102046.00;4968274;28;20105;-65
2021/04/14 07:25:58;;;;;;;19.08;3.72;;;;;;;9.34;51.58;102059.00;4985997;28;20088;-66
2021/04/14 07:28:46;;;;;;;16.20;3.03;;;;;;;11.04;47.94;102046.16;4985790;28;20078;-66
2021/04/14 07:31:24;;;;;;;17.05;4.03;;;;;;;12.19;45.00;102040.66;4981654;28;20077;-66
2021/04/14 07:34:02;;;;;;;19.52;3.63;;;;;;;11.80;45.57;102044.88;5004978;28;20057;-68
2021/04/14 07:36:53;;;;;;;14.70;3.58;;;;;;;13.15;42.84;102047.75;4987186;28;20824;-66
2021/04/14 07:39:34;;;;;;;13.65;3.58;;;;;;;10.87;46.83;102064.38;4981001;28;20592;-67
2021/04/14 07:42:22;;;;;;;18.27;4.13;;;;;;;10.74;47.90;102057.81;5005651;28;20088;-66
2021/04/14 07:45:18;;;;;;;15.10;3.65;;;;;;;9.79;51.26;102053.19;4982490;28;20077;-66
2021/04/14 07:47:48;;;;;;;17.77;4.40;;;;;;;8.92;53.71;102048.91;4970093;28;20058;-66
2021/04/14 07:50:16;;;;;;;16.88;3.67;;;;;;;9.03;53.62;102052.06;4981245;28;20054;-65
2021/04/14 07:52:43;;;;;;;13.40;3.13;;;;;;;9.29;53.07;102050.41;4988178;28;20438;-66
2021/04/14 07:55:25;;;;;;;13.50;3.00;;;;;;;8.95;53.41;102050.56;5003105;28;20050;-66
2021/04/14 07:57:52;;;;;;;19.80;3.70;;;;;;;8.14;55.94;102053.63;4987129;28;20148;-66
2021/04/14 08:00:33;;;;;;;14.40;3.20;;;;;;;8.79;55.05;102063.28;5006841;28;20085;-67
2021/04/14 08:03:16;;;;;;;18.50;4.20;;;;;;;8.41;55.76;102056.47;5005004;28;20252;-68
2021/04/14 08:05:44;;;;;;;19.27;3.17;;;;;;;7.17;59.73;102049.00;4999266;28;20126;-66
2021/04/14 08:08:21;;;;;;;15.32;4.93;;;;;;;7.75;57.57;102052.88;4994613;28;20059;-66
2021/04/14 08:11:01;;;;;;;16.05;2.83;;;;;;;9.10;53.30;102058.84;5001132;28;20054;-66
2021/04/14 08:13:35;;;;;;;15.75;3.45;;;;;;;7.87;56.62;102058.66;4994121;28;20056;-66
2021/04/14 08:16:13;;;;;;;13.23;3.22;;;;;;;7.73;56.89;102057.28;5013059;28;20496;-68
2021/04/14 08:18:49;;;;;;;19.48;4.35;;;;;;;8.21;55.17;102046.47;4978782;28;20057;-66
2021/04/14 08:21:29;;;;;;;15.32;3.00;;;;;;;8.57;54.54;102048.13;4993912;28;20079;-65
2021/04/14 08:24:32;;;;;;;15.80;2.67;;;;;;;8.24;55.58;102049.88;4985782;28;20149;-66
2021/04/14 08:27:13;;;;;;;15.00;2.47;;;;;;;9.56;51.78;102043.44;4984282;28;20480;-67
2021/04/14 08:29:39;;;;;;;14.57;3.03;;;;;;;8.92;53.65;102043.66;4995287;28;20581;-67
2021/04/14 08:32:11;;;;;;;10.40;2.65;;;;;;;9.37;51.81;102040.53;4998922;28;20050;-66
2021/04/14 08:34:40;;;;;;;15.00;3.00;;;;;;;9.11;53.04;102041.31;4990522;28;20149;-66
2021/04/14 08:37:19;;;;;;;15.23;2.67;;;;;;;7.51;56.12;102042.06;4994486;28;20046;-67
2021/04/14 08:39:57;;;;;;;12.07;2.70;;;;;;;8.87;53.22;102043.78;4985764;28;20513;-67
2021/04/14 08:42:32;;;;;;;11.23;2.53;;;;;;;9.89;50.09;102041.47;4997261;28;20054;-67
2021/04/14 08:45:31;;;;;;;17.40;3.37;;;;;;;9.94;50.40;102034.28;4967572;28;20156;-66
2021/04/14 08:48:08;;;;;;;18.85;2.92;;;;;;;11.02;47.44;102034.78;4981869;28;20100;-66
2021/04/14 08:50:40;;;;;;;11.40;2.63;;;;;;;9.62;48.69;102041.44;4996314;28;20128;-67
2021/04/14 08:53:12;;;;;;;19.65;2.80;;;;;;;9.72;49.92;102033.25;4982469;28;20057;-66
2021/04/14 08:55:40;;;;;;;14.15;2.60;;;;;;;10.57;48.48;102029.47;4969198;28;20049;-66
2021/04/14 08:58:08;;;;;;;6.03;1.88;;;;;;;9.37;49.00;102032.66;5003117;28;20084;-67
2021/04/14 09:00:37;;;;;;;10.95;3.03;;;;;;;8.30;52.86;102031.34;4990683;28;20052;-68
2021/04/14 09:03:05;;;;;;;10.57;2.15;;;;;;;9.01;52.86;102029.38;5003573;28;20100;-67
2021/04/14 09:05:33;;;;;;;11.73;2.53;;;;;;;9.72;50.86;102026.22;4974717;28;20078;-65
2021/04/14 09:08:01;;;;;;;10.43;2.30;;;;;;;8.91;50.98;102022.66;5005063;28;20077;-67
2021/04/14 09:10:41;;;;;;;13.23;2.75;;;;;;;9.96;49.78;102015.81;5001726;28;20136;-66
2021/04/14 09:13:10;;;;;;;14.35;3.17;;;;;;;9.49;50.72;102010.34;4983038;28;20038;-67
2021/04/14 09:15:52;;;;;;;11.68;2.58;;;;;;;10.26;45.85;102020.03;4972741;28;20607;-67
2021/04/14 09:18:31;;;;;;;12.73;2.83;;;;;;;8.03;50.99;102017.19;4970186;28;20364;-67
2021/04/14 09:21:24;;;;;;;10.68;2.85;;;;;;;8.50;50.74;102012.44;4984938;28;20046;-67
2021/04/14 09:23:57;;;;;;;9.57;2.15;;;;;;;8.33;51.75;102006.75;4994516;28;20050;-66
2021/04/14 09:26:40;;;;;;;12.93;2.20;;;;;;;8.11;52.61;102009.13;4994187;28;20469;-68
2021/04/14 09:29:13;;;;;;;14.25;2.22;;;;;;;8.44;51.47;102006.53;4985049;28;20046;-66
2021/04/14 09:31:47;;;;;;;11.45;2.72;;;;;;;8.99;50.75;102008.41;4978534;28;20077;-69
2021/04/14 09:34:38;;;;;;;11.27;2.22;;;;;;;8.42;51.61;102013.56;4985318;28;20239;-66
2021/04/14 09:37:16;;;;;;;14.10;2.53;;;;;;;7.65;52.89;102018.16;5002001;28;20050;-67
2021/04/14 09:39:43;;;;;;;18.23;3.40;;;;;;;7.36;54.14;102009.25;5004015;28;20072;-66
2021/04/14 09:42:22;;;;;;;11.05;2.33;;;;;;;6.98;54.50;102009.22;5005502;28;20096;-65
2021/04/14 09:44:55;;;;;;;15.00;2.15;;;;;;;7.76;53.38;102012.66;4999535;28;20448;-67
2021/04/14 09:47:28;;;;;;;10.57;2.00;;;;;;;7.46;54.24;102014.25;4999256;28;20031;-67
2021/04/14 09:50:01;;;;;;;11.38;2.75;;;;;;;7.74;52.30;102010.06;4996926;28;20525;-66
2021/04/14 09:52:44;;;;;;;8.90;1.98;;;;;;;7.64;48.95;102008.56;4995370;28;20279;-64
2021/04/14 09:55:18;;;;;;;13.13;2.00;;;;;;;7.40;51.91;102006.56;4996019;28;20082;-69
2021/04/14 09:57:48;;;;;;;14.77;2.63;;;;;;;8.23;49.96;101998.28;4999598;28;20137;-68
2021/04/14 10:00:22;;;;;;;14.57;2.40;;;;;;;8.76;48.60;102002.97;4975827;28;20490;-67
2021/04/14 10:03:05;;;;;;;15.32;2.58;;;;;;;9.44;48.61;101997.34;4997663;28;20504;-67
2021/04/14 10:05:32;;;;;;;14.15;2.45;;;;;;;8.53;49.54;101999.25;4986516;28;20076;-67
2021/04/14 10:08:00;;;;;;;10.07;2.28;;;;;;;9.00;49.09;101991.72;4984968;28;20081;-67
2021/04/14 10:10:28;;;;;;;13.15;2.50;;;;;;;8.43;49.24;101996.94;4989771;28;20060;-66
2021/04/14 10:12:56;;;;;;;14.07;2.50;;;;;;;8.24;47.71;101993.91;5011157;28;20118;-68
2021/04/14 10:15:34;;;;;;;11.68;2.20;;;;;;;8.85;46.07;101997.44;4973276;28;20595;-66
2021/04/14 10:18:02;;;;;;;9.23;2.65;;;;;;;8.65;46.35;101997.19;5004729;28;20610;-68
2021/04/14 10:20:32;;;;;;;19.02;2.25;;;;;;;8.77;46.63;101992.41;4989180;28;20232;-66
2021/04/14 10:22:59;;;;;;;9.50;1.80;;;;;;;8.42;46.52;101996.06;5006105;28;20145;-68
2021/04/14 10:25:30;;;;;;;6.15;1.80;;;;;;;8.76;46.38;101990.69;5005604;28;20112;-68
2021/04/14 10:28:02;;;;;;;9.93;2.10;;;;;;;8.34;46.62;101998.88;5006078;28;20564;-66
2021/04/14 10:30:31;;;;;;;7.68;1.38;;;;;;;8.42;45.66;102000.44;4978780;28;20065;-67
2021/04/14 10:33:25;;;;;;;8.07;2.53;;;;;;;7.90;47.54;101992.19;4977708;28;20177;-67
2021/04/14 10:35:53;;;;;;;7.32;2.00;;;;;;;8.95;46.12;101987.53;4979602;28;20046;-67
2021/04/14 10:38:30;;;;;;;8.50;1.58;;;;;;;9.71;44.61;101981.59;4988861;28;20060;-66
2021/04/14 10:40:57;;;;;;;7.55;2.13;;;;;;;10.45;41.74;101983.41;5004949;28;20452;-68
2021/04/14 10:43:26;;;;;;;12.50;2.00;;;;;;;9.27;42.27;101983.88;4994397;28;20341;-66
2021/04/14 10:46:06;;;;;;;6.20;1.50;;;;;;;9.75;41.99;101986.69;4968885;28;20047;-67
2021/04/14 10:48:37;;;;;;;17.42;6.50;;;;;;;10.12;42.62;101986.28;4992869;28;20406;-67
2021/04/14 10:51:22;;;;;;;12.13;4.80;;;;;;;9.72;40.96;101985.94;4994664;28;20129;-68
2021/04/14 10:53:54;;;;;;;7.93;2.30;;;;;;;9.03;42.31;101975.88;4995811;28;20503;-68
2021/04/14 10:56:24;;;;;;;14.57;2.55;;;;;;;8.66;42.23;101977.91;4982396;28;20077;-67
2021/04/14 10:58:51;;;;;;;6.85;1.83;;;;;;;8.22;43.00;101980.84;4986834;28;20050;-67
2021/04/14 11:01:30;;;;;;;6.75;1.30;;;;;;;8.95;41.82;101971.75;4989197;28;20426;-69
2021/04/14 11:04:08;;;;;;;8.95;1.95;;;;;;;8.81;41.55;101983.53;5006314;28;20590;-68
2021/04/14 11:06:34;;;;;;;6.57;1.83;;;;;;;8.41;43.66;101977.72;5007847;28;20145;-66
2021/04/14 11:09:02;;;;;;;16.45;2.05;;;;;;;8.41;44.24;101973.34;4982568;28;20058;-67
2021/04/14 11:11:29;;;;;;;7.25;1.83;;;;;;;8.79;42.75;101976.63;5007003;28;20139;-67
2021/04/14 11:13:56;;;;;;;6.32;1.38;;;;;;;8.70;43.75;101972.50;4976501;28;20121;-66
2021/04/14 11:16:23;;;;;;;6.72;1.60;;;;;;;9.27;41.13;101962.88;5004778;28;20505;-66
2021/04/14 11:18:50;;;;;;;5.70;1.35;;;;;;;9.23;39.50;101964.75;5007203;28;20136;-68
2021/04/14 11:21:23;;;;;;;6.53;1.25;;;;;;;9.85;36.60;101960.94;4974674;28;20510;-67
2021/04/14 11:24:01;;;;;;;3.83;0.88;;;;;;;9.99;32.73;101948.16;4986777;28;20121;-68
2021/04/14 11:26:28;;;;;;;4.65;1.17;;;;;;;10.99;32.29;101940.06;5012869;28;20077;-66
2021/04/14 11:28:56;;;;;;;6.45;1.33;;;;;;;10.63;32.53;101945.00;4985515;28;20423;-66
2021/04/14 11:31:38;;;;;;;7.07;1.48;;;;;;;10.76;32.90;101937.44;4989973;28;20116;-67
2021/04/14 11:34:25;;;;;;;4.72;1.42;;;;;;;9.03;36.91;101946.97;4988873;28;20189;-67
2021/04/14 11:37:04;;;;;;;5.95;1.38;;;;;;;8.92;37.36;101950.88;4972048;28;20078;-67
2021/04/14 11:39:52;;;;;;;8.13;1.33;;;;;;;8.93;38.46;101945.56;4998723;28;20464;-69
2021/04/14 11:42:46;;;;;;;4.53;1.42;;;;;;;8.97;39.86;101944.56;5000703;28;20062;-67
2021/04/14 11:45:27;;;;;;;8.55;1.63;;;;;;;8.86;39.97;101947.50;4999101;28;20080;-66
2021/04/14 11:47:53;;;;;;;7.72;1.50;;;;;;;8.63;40.55;101942.94;4997817;28;20053;-67